Time;durP1;ratioP1;P1;durP2;ratioP2;P2;SDS_P1;SDS_P2;PMS_P1;PMS_P2;Temp;Humidity;BMP_temperature;BMP_pressure;BME280_temperature;BME280_humidity;BME280_pressure;Samples;Min_cycle;Max_cycle;Signal;HPM_P1;HPM_P2
2021/01/31 00:02:48;;;;;;;;;;;10.90;99.90;;;;;;5091035;28;20251;-72
2021/01/31 00:05:53;;;;;;;;;;;10.90;99.90;;;;;;5089830;28;19923;-71
2021/01/31 00:08:57;;;;;;;;;;;11.00;99.90;;;;;;5091454;28;19935;-72
2021/01/31 00:12:01;;;;;;;;;;;10.90;99.90;;;;;;5093980;28;20350;-71
2021/01/31 00:15:07;;;;;;;;;;;10.90;99.90;;;;;;5093944;28;19938;-71
2021/01/31 00:18:12;;;;;;;;;;;11.10;99.90;;;;;;5084007;28;20571;-71
2021/01/31 00:21:16;;;;;;;;;;;11.10;99.90;;;;;;5082548;28;19923;-72
2021/01/31 00:24:20;;;;;;;;;;;11.10;99.90;;;;;;5092778;28;19920;-72
2021/01/31 00:27:24;;;;;;;;;;;11.10;99.90;;;;;;5091772;28;20473;-72
2021/01/31 00:30:33;;;;;;;;;;;11.00;99.90;;;;;;5096751;28;19920;-74
2021/01/31 00:33:37;;;;;;;;;;;10.80;99.90;;;;;;5093473;28;19923;-73
2021/01/31 00:36:42;;;;;;;;;;;10.20;99.90;;;;;;5088273;28;19923;-73
2021/01/31 00:39:47;;;;;;;;;;;9.80;99.90;;;;;;5088443;28;19927;-74
2021/01/31 01:05:14;;;;;;;;;;;7.60;99.90;;;;;;5088957;28;19920;-73
2021/01/31 01:08:18;;;;;;;;;;;7.50;99.90;;;;;;5091679;28;19919;-73
2021/01/31 01:11:22;;;;;;;;;;;7.50;99.90;;;;;;5081849;28;20401;-73
2021/01/31 01:14:27;;;;;;;;;;;7.50;99.90;;;;;;5092555;28;20247;-72
2021/01/31 01:17:31;;;;;;;;;;;7.60;99.90;;;;;;5092043;28;19919;-73
2021/01/31 01:20:35;;;;;;;;;;;7.70;99.90;;;;;;5091023;28;19927;-74
2021/01/31 01:23:42;;;;;;;;;;;7.70;99.90;;;;;;5093631;28;19919;-73
2021/01/31 01:26:46;;;;;;;;;;;7.80;99.90;;;;;;5088248;28;19923;-74
2021/01/31 01:29:51;;;;;;;;;;;7.80;99.90;;;;;;5091260;28;19923;-73
2021/01/31 01:32:55;;;;;;;;;;;7.80;99.90;;;;;;5093549;28;19935;-73
2021/01/31 01:35:59;;;;;;;;;;;7.90;99.90;;;;;;5088921;28;19919;-72
2021/01/31 01:39:03;;;;;;;;;;;8.00;99.90;;;;;;5077880;28;19923;-72
2021/01/31 01:42:09;;;;;;;;;;;8.00;99.90;;;;;;5080863;28;19919;-73
2021/01/31 01:45:13;;;;;;;;;;;7.90;99.90;;;;;;5091496;28;19927;-73
2021/01/31 01:48:19;;;;;;;;;;;8.00;99.90;;;;;;5090507;28;19920;-73
2021/01/31 01:51:27;;;;;;;;;;;8.10;99.90;;;;;;5091071;28;19931;-73
2021/01/31 01:54:37;;;;;;;;;;;8.00;99.90;;;;;;5092519;28;19919;-73
2021/01/31 01:57:53;;;;;;;;;;;8.10;99.90;;;;;;5089997;28;19923;-72
2021/01/31 02:00:57;;;;;;;;;;;8.20;99.90;;;;;;5079725;28;19923;-70
2021/01/31 02:04:01;;;;;;;;;;;8.20;99.90;;;;;;5080179;28;19919;-72
2021/01/31 02:07:06;;;;;;;;;;;8.30;99.90;;;;;;5091873;28;19920;-72
2021/01/31 02:10:13;;;;;;;;;;;8.30;99.90;;;;;;5090276;28;19923;-72
2021/01/31 02:13:17;;;;;;;;;;;8.40;99.90;;;;;;5091820;28;20088;-71
2021/01/31 02:16:28;;;;;;;;;;;8.40;99.90;;;;;;5088002;28;19919;-70
2021/01/31 02:19:37;;;;;;;;;;;8.50;99.90;;;;;;5090840;28;19923;-72
2021/01/31 02:22:41;;;;;;;;;;;8.50;99.90;;;;;;5078597;28;19919;-71
2021/01/31 02:25:51;;;;;;;;;;;8.40;99.90;;;;;;5090279;28;19923;-69
2021/01/31 02:29:14;;;;;;;;;;;8.40;99.90;;;;;;5090414;28;19920;-72
2021/01/31 02:32:31;;;;;;;;;;;8.50;99.90;;;;;;5078967;28;19919;-72
2021/01/31 02:35:36;;;;;;;;;;;8.50;99.90;;;;;;5079269;28;19923;-72
2021/01/31 02:39:03;;;;;;;;;;;8.50;99.90;;;;;;5090789;28;19927;-72
2021/01/31 02:42:26;;;;;;;;;;;8.40;99.90;;;;;;5089577;28;19919;-72
2021/01/31 02:45:51;;;;;;;;;;;8.40;99.90;;;;;;5089768;28;19927;-71
2021/01/31 02:49:15;;;;;;;;;;;8.50;99.90;;;;;;5091601;28;19919;-72
2021/01/31 02:52:24;;;;;;;;;;;8.60;99.90;;;;;;5091207;28;19920;-71
2021/01/31 02:55:34;;;;;;;;;;;8.60;99.90;;;;;;5090194;28;20027;-71
2021/01/31 02:58:42;;;;;;;;;;;8.60;99.90;;;;;;5089214;28;19927;-72
2021/01/31 03:01:50;;;;;;;;;;;8.60;99.90;;;;;;5089720;28;19935;-72
2021/01/31 03:05:00;;;;;;;;;;;8.60;99.90;;;;;;5090714;28;19919;-72
2021/01/31 03:08:08;;;;;;;;;;;8.50;99.90;;;;;;5079367;28;19922;-72
2021/01/31 03:11:24;;;;;;;;;;;8.60;99.90;;;;;;5090256;28;19919;-71
2021/01/31 03:14:30;;;;;;;;;;;8.60;99.90;;;;;;5090574;28;20382;-72
2021/01/31 03:17:53;;;;;;;;;;;8.50;99.90;;;;;;5089466;28;19919;-71
2021/01/31 03:21:11;;;;;;;;;;;8.60;99.90;;;;;;5089217;28;19939;-71
2021/01/31 03:24:26;;;;;;;;;;;8.70;99.90;;;;;;5086739;28;19919;-72
2021/01/31 03:27:34;;;;;;;;;;;8.70;99.90;;;;;;5085261;28;19927;-72
2021/01/31 03:30:38;;;;;;;;;;;8.70;99.90;;;;;;5088276;28;19927;-72
2021/01/31 03:33:45;;;;;;;;;;;8.50;99.90;;;;;;5077261;28;19919;-72
2021/01/31 03:36:51;;;;;;;;;;;8.40;99.90;;;;;;5090522;28;19923;-72
2021/01/31 03:39:57;;;;;;;;;;;8.00;99.90;;;;;;5088723;28;19923;-72
2021/01/31 03:43:01;;;;;;;;;;;7.80;99.90;;;;;;5090463;28;19927;-72
2021/01/31 03:46:10;;;;;;;;;;;7.60;99.90;;;;;;5093812;28;19923;-71
2021/01/31 03:49:25;;;;;;;;;;;7.70;99.90;;;;;;5094757;28;19919;-72
2021/01/31 03:52:29;;;;;;;;;;;7.70;99.90;;;;;;5094388;28;19965;-72
2021/01/31 03:55:33;;;;;;;;;;;7.60;99.90;;;;;;5094414;28;19919;-72
2021/01/31 03:58:44;;;;;;;;;;;7.70;99.90;;;;;;5092609;28;19923;-71
2021/01/31 04:01:48;;;;;;;;;;;7.80;99.90;;;;;;5091473;28;19919;-72
2021/01/31 04:04:52;;;;;;;;;;;7.60;99.90;;;;;;5085483;28;19923;-72
2021/01/31 04:07:58;;;;;;;;;;;7.60;99.90;;;;;;5089521;28;19923;-72
2021/01/31 04:11:03;;;;;;;;;;;7.70;99.90;;;;;;5092153;28;20263;-71
2021/01/31 04:14:10;;;;;;;;;;;7.60;99.90;;;;;;5094245;28;19940;-71
2021/01/31 04:17:14;;;;;;;;;;;7.60;99.90;;;;;;5093184;28;19923;-71
2021/01/31 04:20:18;;;;;;;;;;;7.60;99.90;;;;;;5092406;28;19923;-72
2021/01/31 04:23:22;;;;;;;;;;;7.70;99.90;;;;;;5082556;28;19927;-71
2021/01/31 04:26:26;;;;;;;;;;;7.70;99.90;;;;;;5094300;28;19919;-72
2021/01/31 04:29:30;;;;;;;;;;;7.70;99.90;;;;;;5092861;28;19990;-72
2021/01/31 04:32:35;;;;;;;;;;;7.70;99.90;;;;;;5093060;28;20526;-72
2021/01/31 04:35:39;;;;;;;;;;;7.70;99.90;;;;;;5082189;28;20374;-72
2021/01/31 04:38:43;;;;;;;;;;;7.60;99.90;;;;;;5092983;28;20378;-72
2021/01/31 04:41:48;;;;;;;;;;;7.50;99.90;;;;;;5091840;28;19943;-72
2021/01/31 04:44:52;;;;;;;;;;;7.60;99.90;;;;;;5088032;28;19927;-72
2021/01/31 04:48:08;;;;;;;;;;;7.70;99.90;;;;;;5093755;28;20058;-73
2021/01/31 04:51:35;;;;;;;;;;;7.70;99.90;;;;;;5092415;28;21232;-72
2021/01/31 04:55:02;;;;;;;;;;;7.80;99.90;;;;;;5075537;28;19923;-73
2021/01/31 04:58:12;;;;;;;;;;;7.80;99.90;;;;;;5086577;28;19919;-73
2021/01/31 05:01:16;;;;;;;;;;;7.90;99.90;;;;;;5083133;28;20378;-73
2021/01/31 05:04:21;;;;;;;;;;;7.90;99.90;;;;;;5092814;28;19923;-72
2021/01/31 05:07:31;;;;;;;;;;;7.90;99.90;;;;;;5093355;28;19919;-73
2021/01/31 05:10:36;;;;;;;;;;;7.90;99.90;;;;;;5091634;28;19935;-74
2021/01/31 05:13:40;;;;;;;;;;;7.80;99.90;;;;;;5091927;28;19923;-73
2021/01/31 05:16:44;;;;;;;;;;;7.70;99.90;;;;;;5082265;28;20373;-73
2021/01/31 05:19:48;;;;;;;;;;;7.80;99.90;;;;;;5089431;28;19922;-73
2021/01/31 05:22:53;;;;;;;;;;;7.80;99.90;;;;;;5092074;28;19959;-73
2021/01/31 05:25:57;;;;;;;;;;;7.70;99.90;;;;;;5091985;28;19923;-73
2021/01/31 05:29:02;;;;;;;;;;;7.60;99.90;;;;;;5092495;28;19923;-72
2021/01/31 05:32:07;;;;;;;;;;;7.50;99.90;;;;;;5088841;28;20477;-72
2021/01/31 05:35:20;;;;;;;;;;;7.50;99.90;;;;;;5092448;28;19927;-72
2021/01/31 05:38:35;;;;;;;;;;;7.50;99.90;;;;;;5092890;28;19919;-73
2021/01/31 05:41:46;;;;;;;;;;;7.50;99.90;;;;;;5090382;28;19940;-72
2021/01/31 05:45:02;;;;;;;;;;;7.60;99.90;;;;;;5091599;28;19931;-72
2021/01/31 05:48:34;;;;;;;;;;;7.60;99.90;;;;;;5085278;28;19927;-73
2021/01/31 05:51:39;;;;;;;;;;;7.70;99.90;;;;;;5084662;28;19923;-73
2021/01/31 05:54:44;;;;;;;;;;;7.70;99.90;;;;;;5089617;28;19927;-72
2021/01/31 05:57:48;;;;;;;;;;;7.70;99.90;;;;;;5082349;28;19919;-73
2021/01/31 06:01:06;;;;;;;;;;;7.70;99.90;;;;;;5090506;28;19927;-73
2021/01/31 06:04:14;;;;;;;;;;;7.80;99.90;;;;;;5091939;28;20272;-73
2021/01/31 06:07:19;;;;;;;;;;;7.90;99.90;;;;;;5090605;28;19927;-73
2021/01/31 06:10:23;;;;;;;;;;;7.90;99.90;;;;;;5091518;28;19919;-72
2021/01/31 06:13:28;;;;;;;;;;;8.00;99.90;;;;;;5091099;28;19919;-73
2021/01/31 06:16:33;;;;;;;;;;;8.00;99.90;;;;;;5090394;28;19919;-73
2021/01/31 06:19:38;;;;;;;;;;;8.00;99.90;;;;;;5077493;28;20397;-73
2021/01/31 06:22:43;;;;;;;;;;;8.00;99.90;;;;;;5090121;28;19931;-72
2021/01/31 06:25:46;;;;;;;;;;;8.00;99.90;;;;;;5099954;28;19935;-73
2021/01/31 06:28:53;;;;;;;;;;;8.00;99.90;;;;;;5091718;28;19923;-72
2021/01/31 06:32:04;;;;;;;;;;;8.00;99.90;;;;;;5089857;28;19934;-73
2021/01/31 06:35:10;;;;;;;;;;;7.60;99.90;;;;;;5091258;28;20489;-73
2021/01/31 06:38:30;;;;;;;;;;;7.40;99.90;;;;;;5091808;28;19919;-73
2021/01/31 06:41:52;;;;;;;;;;;7.30;99.90;;;;;;5090598;28;19923;-72
2021/01/31 06:44:56;;;;;;;;;;;7.30;99.90;;;;;;5090718;28;19932;-72
2021/01/31 06:48:00;;;;;;;;;;;7.30;99.90;;;;;;5090760;28;19942;-73
2021/01/31 06:51:04;;;;;;;;;;;7.40;99.90;;;;;;5079304;28;20270;-73
2021/01/31 06:54:17;;;;;;;;;;;7.40;99.90;;;;;;5078603;28;19923;-73
2021/01/31 06:57:24;;;;;;;;;;;7.50;99.90;;;;;;5076488;28;19924;-73
2021/01/31 07:00:47;;;;;;;;;;;7.40;99.90;;;;;;5071621;28;20410;-73
2021/01/31 07:03:59;;;;;;;;;;;7.40;99.90;;;;;;5073270;28;20278;-73
2021/01/31 07:07:16;;;;;;;;;;;7.40;99.90;;;;;;5074280;28;19919;-73
2021/01/31 07:10:24;;;;;;;;;;;7.30;99.90;;;;;;5074268;28;19935;-72
2021/01/31 07:13:52;;;;;;;;;;;7.40;99.90;;;;;;5072197;28;19943;-73
2021/01/31 07:17:03;;;;;;;;;;;7.50;99.90;;;;;;5072424;28;19928;-72
2021/01/31 07:20:08;;;;;;;;;;;7.60;99.90;;;;;;5073326;28;20282;-73
2021/01/31 07:23:15;;;;;;;;;;;7.60;99.90;;;;;;5078137;28;19920;-73
2021/01/31 07:26:24;;;;;;;;;;;7.60;99.90;;;;;;5078477;28;19931;-73
2021/01/31 07:29:42;;;;;;;;;;;7.80;99.90;;;;;;5071376;28;19927;-72
2021/01/31 07:33:04;;;;;;;;;;;7.90;99.90;;;;;;5073247;28;20409;-72
2021/01/31 07:36:30;;;;;;;;;;;8.00;99.90;;;;;;5079350;28;19919;-72
2021/01/31 07:39:42;;;;;;;;;;;8.00;99.90;;;;;;5089009;28;19927;-73
2021/01/31 07:42:46;;;;;;;;;;;8.10;99.90;;;;;;5085852;28;20374;-72
2021/01/31 07:46:12;;;;;;;;;;;7.90;99.90;;;;;;5084037;28;19931;-72
2021/01/31 07:49:16;;;;;;;;;;;7.90;99.90;;;;;;5091045;28;19949;-72
2021/01/31 07:52:20;;;;;;;;;;;8.10;99.90;;;;;;5089780;28;19919;-72
2021/01/31 07:55:41;;;;;;;;;;;8.30;99.90;;;;;;5088992;28;19923;-72
2021/01/31 07:58:45;;;;;;;;;;;8.40;99.90;;;;;;5083448;28;20287;-72
2021/01/31 08:01:53;;;;;;;;;;;8.50;99.90;;;;;;5072808;28;19923;-72
2021/01/31 08:04:58;;;;;;;;;;;8.50;99.90;;;;;;5079104;28;19947;-73
2021/01/31 08:08:03;;;;;;;;;;;8.50;99.90;;;;;;5086265;28;19945;-73
2021/01/31 08:11:12;;;;;;;;;;;8.70;99.90;;;;;;5086041;28;20286;-72
2021/01/31 08:14:35;;;;;;;;;;;8.90;99.90;;;;;;5086301;28;19919;-72
2021/01/31 08:17:45;;;;;;;;;;;9.10;99.90;;;;;;5084699;28;19919;-73
2021/01/31 08:20:50;;;;;;;;;;;9.30;99.90;;;;;;5079783;28;20408;-72
2021/01/31 08:23:54;;;;;;;;;;;9.50;99.90;;;;;;5084998;28;19939;-73
2021/01/31 08:26:58;;;;;;;;;;;9.60;99.90;;;;;;5084455;28;20296;-72
2021/01/31 08:30:15;;;;;;;;;;;9.70;99.90;;;;;;5089587;28;19931;-72
2021/01/31 08:33:21;;;;;;;;;;;9.60;99.90;;;;;;5089433;28;19926;-73
2021/01/31 08:36:29;;;;;;;;;;;9.70;99.90;;;;;;5092010;28;19923;-73
2021/01/31 08:39:36;;;;;;;;;;;9.80;99.90;;;;;;5091815;28;19923;-72
2021/01/31 08:42:54;;;;;;;;;;;9.90;99.90;;;;;;5091019;28;19923;-73
2021/01/31 08:46:17;;;;;;;;;;;9.70;99.90;;;;;;5087053;28;19927;-72
2021/01/31 08:49:22;;;;;;;;;;;9.60;99.90;;;;;;5085710;28;19998;-73
2021/01/31 08:52:27;;;;;;;;;;;9.80;99.90;;;;;;5083672;28;19919;-72
2021/01/31 08:55:32;;;;;;;;;;;10.10;99.90;;;;;;5076264;28;19924;-72
2021/01/31 08:58:38;;;;;;;;;;;10.40;99.90;;;;;;5080676;28;19916;-72
2021/01/31 09:01:44;;;;;;;;;;;10.80;99.90;;;;;;5081503;28;19931;-72
2021/01/31 09:04:50;;;;;;;;;;;11.10;99.90;;;;;;5086983;28;19936;-72
2021/01/31 09:08:02;;;;;;;;;;;11.20;99.90;;;;;;5088358;28;19935;-72
2021/01/31 09:11:07;;;;;;;;;;;11.50;99.90;;;;;;5088870;28;20369;-72
2021/01/31 09:14:12;;;;;;;;;;;11.70;99.90;;;;;;5090413;28;19919;-72
2021/01/31 09:17:25;;;;;;;;;;;11.80;99.90;;;;;;5088325;28;20398;-72
2021/01/31 09:20:28;;;;;;;;;;;11.80;99.90;;;;;;5087489;28;19924;-72
2021/01/31 09:23:35;;;;;;;;;;;11.60;99.90;;;;;;5100724;28;19919;-72
2021/01/31 09:26:39;;;;;;;;;;;11.50;99.90;;;;;;5096004;28;20567;-72
2021/01/31 09:29:46;;;;;;;;;;;11.30;99.90;;;;;;5098353;28;19915;-71
2021/01/31 09:32:52;;;;;;;;;;;11.30;99.90;;;;;;5091117;28;19919;-71
2021/01/31 09:35:56;;;;;;;;;;;11.40;99.90;;;;;;5094058;28;19954;-72
2021/01/31 09:39:03;;;;;;;;;;;11.50;99.90;;;;;;5093239;28;19934;-72
2021/01/31 09:42:07;;;;;;;;;;;11.70;99.90;;;;;;5093157;28;19931;-72
2021/01/31 09:45:30;;;;;;;;;;;11.40;99.90;;;;;;5094114;28;20274;-72
2021/01/31 09:48:35;;;;;;;;;;;10.70;99.90;;;;;;5101979;28;20282;-71
2021/01/31 09:51:40;;;;;;;;;;;11.20;99.90;;;;;;5089447;28;20277;-71
2021/01/31 09:54:43;;;;;;;;;;;11.30;99.90;;;;;;5087731;28;19930;-72
2021/01/31 09:57:47;;;;;;;;;;;11.70;99.90;;;;;;5086740;28;19919;-72
2021/01/31 10:00:53;;;;;;;;;;;12.30;99.90;;;;;;5086024;28;20274;-72
2021/01/31 10:04:02;;;;;;;;;;;13.10;99.90;;;;;;5089540;28;19927;-72
2021/01/31 10:07:07;;;;;;;;;;;12.60;99.90;;;;;;5093477;28;19941;-72
2021/01/31 10:10:30;;;;;;;;;;;12.80;99.90;;;;;;5092002;28;19915;-72
2021/01/31 10:13:34;;;;;;;;;;;13.40;99.90;;;;;;5090739;28;19919;-73
2021/01/31 10:16:39;;;;;;;;;;;13.40;99.90;;;;;;5089951;28;20273;-73
2021/01/31 10:19:45;;;;;;;;;;;14.00;99.90;;;;;;5091812;28;19934;-72
2021/01/31 10:22:49;;;;;;;;;;;15.00;99.90;;;;;;5099545;28;19923;-73
2021/01/31 10:26:00;;;;;;;;;;;14.30;99.90;;;;;;5096790;28;20365;-73
2021/01/31 10:29:05;;;;;;;;;;;15.00;99.90;;;;;;5097465;28;19908;-73
2021/01/31 10:32:27;;;;;;;;;;;16.30;99.90;;;;;;5089999;28;20301;-73
2021/01/31 10:35:36;;;;;;;;;;;15.30;99.90;;;;;;5084535;28;19923;-73
2021/01/31 10:38:43;;;;;;;;;;;14.90;99.90;;;;;;5083945;28;19919;-73
2021/01/31 10:41:47;;;;;;;;;;;14.90;99.90;;;;;;5083997;28;19939;-72
2021/01/31 10:44:51;;;;;;;;;;;15.00;99.90;;;;;;5096800;28;20386;-73
2021/01/31 10:47:56;;;;;;;;;;;15.10;99.90;;;;;;5100032;28;19919;-73
2021/01/31 10:51:01;;;;;;;;;;;15.10;99.90;;;;;;5097288;28;20283;-73
2021/01/31 10:54:05;;;;;;;;;;;14.70;99.90;;;;;;5096884;28;19926;-73
2021/01/31 10:57:09;;;;;;;;;;;14.30;99.90;;;;;;5101726;28;19965;-73
2021/01/31 11:00:13;;;;;;;;;;;13.80;99.90;;;;;;5089116;28;19927;-72
2021/01/31 11:03:17;;;;;;;;;;;13.30;99.90;;;;;;5088557;28;19945;-72
2021/01/31 11:06:24;;;;;;;;;;;12.90;99.90;;;;;;5090804;28;19919;-73
2021/01/31 11:09:28;;;;;;;;;;;12.40;99.90;;;;;;5088265;28;20672;-73
2021/01/31 11:12:32;;;;;;;;;;;12.10;99.90;;;;;;5085423;28;20542;-73
2021/01/31 11:15:37;;;;;;;;;;;11.80;99.90;;;;;;5092743;28;19930;-72
2021/01/31 11:18:42;;;;;;;;;;;11.60;99.90;;;;;;5093046;28;19919;-72
2021/01/31 11:21:46;;;;;;;;;;;11.50;99.90;;;;;;5088640;28;19923;-73
2021/01/31 11:24:52;;;;;;;;;;;11.50;99.90;;;;;;5092615;28;19931;-72
2021/01/31 11:27:56;;;;;;;;;;;11.50;99.90;;;;;;5093530;28;19928;-72
2021/01/31 11:31:03;;;;;;;;;;;11.50;99.90;;;;;;5089113;28;20530;-73
2021/01/31 11:34:08;;;;;;;;;;;11.60;99.90;;;;;;5089104;28;19919;-72
2021/01/31 11:37:12;;;;;;;;;;;11.80;99.90;;;;;;5088961;28;19935;-72
2021/01/31 11:40:16;;;;;;;;;;;12.00;99.90;;;;;;5089341;28;20392;-73
2021/01/31 11:43:39;;;;;;;;;;;12.50;99.90;;;;;;5089092;28;20386;-72
2021/01/31 11:46:43;;;;;;;;;;;12.80;99.90;;;;;;5078242;28;19934;-73
2021/01/31 11:49:49;;;;;;;;;;;13.20;99.90;;;;;;5076461;28;19920;-72
2021/01/31 11:52:54;;;;;;;;;;;13.50;99.90;;;;;;5087543;28;19919;-73
2021/01/31 11:55:59;;;;;;;;;;;13.60;99.90;;;;;;5096804;28;19931;-73
2021/01/31 11:59:03;;;;;;;;;;;13.80;99.90;;;;;;5060846;27;21084;-73
2021/01/31 12:02:13;;;;;;;3.95;1.95;;;13.90;99.90;;;;;;5021642;27;20442;-73
2021/01/31 12:05:20;;;;;;;2.72;1.40;;;14.10;99.90;;;;;;4990076;28;72985;-73
2021/01/31 12:08:24;;;;;;;6.63;1.42;;;14.10;99.90;;;;;;5055244;28;20037;-73
2021/01/31 12:11:30;;;;;;;2.17;1.40;;;14.10;99.90;;;;;;5026171;28;20049;-73
2021/01/31 12:14:35;;;;;;;1.88;1.23;;;14.00;99.90;;;;;;5030014;28;20044;-74
2021/01/31 12:17:41;;;;;;;2.90;1.20;;;13.80;99.90;;;;;;5067877;28;20033;-73
2021/01/31 12:20:46;;;;;;;2.03;1.30;;;13.60;99.90;;;;;;5058312;28;20041;-73
2021/01/31 12:23:53;;;;;;;4.10;1.25;;;13.00;99.90;;;;;;5060525;28;20033;-73
2021/01/31 12:26:58;;;;;;;2.65;1.08;;;12.90;99.90;;;;;;5056913;28;20033;-73
2021/01/31 12:30:07;;;;;;;1.70;1.17;;;12.90;99.90;;;;;;5056426;28;20029;-73
2021/01/31 12:33:11;;;;;;;2.47;1.10;;;13.00;99.90;;;;;;5061744;28;20033;-73
2021/01/31 12:36:15;;;;;;;2.33;1.08;;;13.20;99.90;;;;;;5060931;28;20033;-74
2021/01/31 12:39:20;;;;;;;1.67;1.13;;;13.30;99.90;;;;;;5060165;28;20033;-73
2021/01/31 12:42:24;;;;;;;2.83;1.30;;;13.80;99.90;;;;;;5052761;28;20045;-73
2021/01/31 12:45:29;;;;;;;1.42;1.10;;;14.70;99.90;;;;;;5062413;28;20357;-73
2021/01/31 12:48:36;;;;;;;2.22;1.00;;;15.40;99.90;;;;;;5056920;28;20353;-69
2021/01/31 12:51:41;;;;;;;1.50;1.08;;;15.60;99.90;;;;;;5051356;28;20779;-70
2021/01/31 12:54:47;;;;;;;1.45;1.10;;;15.40;99.90;;;;;;5039573;28;20040;-69
2021/01/31 12:57:52;;;;;;;2.75;1.73;;;15.10;99.90;;;;;;5035603;28;20377;-69
2021/01/31 13:00:58;;;;;;;2.55;1.20;;;14.60;99.90;;;;;;5041747;28;21508;-69
2021/01/31 13:04:02;;;;;;;1.52;1.20;;;14.20;99.90;;;;;;5051065;28;21401;-69
2021/01/31 13:07:07;;;;;;;1.90;1.20;;;13.80;99.90;;;;;;5051431;28;20047;-69
2021/01/31 13:10:11;;;;;;;3.33;1.20;;;13.40;99.90;;;;;;5053775;28;20044;-69
2021/01/31 13:13:16;;;;;;;1.63;1.10;;;13.00;99.90;;;;;;5044717;28;20041;-69
2021/01/31 13:16:21;;;;;;;1.95;1.13;;;12.70;99.90;;;;;;5039960;28;20041;-69
2021/01/31 13:19:26;;;;;;;2.80;1.65;;;12.50;99.90;;;;;;5042532;28;20032;-69
2021/01/31 13:22:30;;;;;;;3.13;1.10;;;12.30;99.90;;;;;;5039146;28;20044;-69
2021/01/31 13:25:34;;;;;;;2.10;1.10;;;12.10;99.90;;;;;;5036700;28;20037;-68
2021/01/31 13:28:38;;;;;;;1.67;1.00;;;12.00;99.90;;;;;;5040635;28;20025;-68
2021/01/31 13:31:44;;;;;;;2.80;0.90;;;12.00;99.90;;;;;;5036451;28;20036;-69
2021/01/31 13:34:49;;;;;;;1.23;1.00;;;12.00;99.90;;;;;;5037249;28;20037;-69
2021/01/31 13:37:54;;;;;;;1.95;1.00;;;11.80;99.90;;;;;;5049877;28;20370;-69
2021/01/31 13:40:58;;;;;;;1.55;1.20;;;11.90;99.90;;;;;;5044660;28;20041;-69
2021/01/31 13:44:03;;;;;;;2.78;1.10;;;11.90;99.90;;;;;;5045598;28;20489;-68
2021/01/31 13:47:07;;;;;;;1.40;0.90;;;11.90;99.90;;;;;;5038299;28;20037;-69
2021/01/31 13:50:17;;;;;;;1.60;1.20;;;11.90;99.90;;;;;;5038976;28;20029;-69
2021/01/31 13:53:21;;;;;;;1.65;1.25;;;11.80;99.90;;;;;;5040336;28;20377;-69
2021/01/31 13:56:26;;;;;;;1.40;1.10;;;11.90;99.90;;;;;;5037823;28;20357;-68
2021/01/31 13:59:31;;;;;;;1.38;1.05;;;11.80;99.90;;;;;;5039529;28;20041;-69
2021/01/31 14:02:35;;;;;;;4.68;1.25;;;12.00;99.90;;;;;;5039866;28;21132;-69
2021/01/31 14:05:39;;;;;;;2.22;1.30;;;12.10;99.90;;;;;;5044696;28;20369;-69
2021/01/31 14:08:47;;;;;;;1.40;0.90;;;12.30;99.90;;;;;;5036301;28;20041;-69
2021/01/31 14:11:52;;;;;;;1.48;1.02;;;12.50;99.90;;;;;;5043998;28;20041;-69
2021/01/31 14:14:58;;;;;;;1.60;1.00;;;12.60;99.90;;;;;;5046881;28;20037;-69
2021/01/31 14:18:03;;;;;;;1.92;0.95;;;12.70;99.90;;;;;;5041907;28;20049;-69
2021/01/31 14:21:10;;;;;;;1.48;1.00;;;12.80;99.90;;;;;;5039675;28;20034;-70
2021/01/31 14:24:15;;;;;;;1.40;1.17;;;12.90;99.90;;;;;;5046593;28;20037;-69
2021/01/31 14:27:19;;;;;;;1.30;1.00;;;12.80;99.90;;;;;;5034710;28;20025;-70
2021/01/31 14:30:25;;;;;;;1.52;0.90;;;12.60;99.90;;;;;;5060656;28;20032;-69
2021/01/31 14:33:30;;;;;;;1.95;0.70;;;12.50;99.90;;;;;;5035946;28;20527;-69
2021/01/31 14:36:33;;;;;;;2.25;0.95;;;12.40;99.90;;;;;;5033349;28;20029;-70
2021/01/31 14:39:38;;;;;;;1.40;0.73;;;12.20;99.90;;;;;;5034470;28;20032;-69
2021/01/31 14:42:43;;;;;;;1.70;1.02;;;12.10;99.90;;;;;;5038349;28;20041;-70
2021/01/31 14:45:47;;;;;;;1.50;0.80;;;12.00;99.90;;;;;;5039449;28;20467;-69
2021/01/31 14:48:52;;;;;;;1.48;0.70;;;12.00;99.90;;;;;;5044685;28;20033;-69
2021/01/31 14:51:57;;;;;;;1.10;0.77;;;12.00;99.90;;;;;;5038654;28;20048;-69
2021/01/31 14:55:07;;;;;;;0.93;0.70;;;12.10;99.90;;;;;;5045698;28;20381;-70
2021/01/31 14:58:12;;;;;;;1.38;0.75;;;12.10;99.90;;;;;;5035213;28;20764;-69
2021/01/31 15:01:16;;;;;;;1.15;0.73;;;12.10;99.90;;;;;;5036811;28;20033;-69
2021/01/31 15:04:22;;;;;;;1.17;0.77;;;12.10;99.90;;;;;;5038888;28;20056;-69
2021/01/31 15:07:27;;;;;;;2.13;1.13;;;12.10;99.90;;;;;;5030933;28;20388;-69
2021/01/31 15:10:32;;;;;;;2.67;1.58;;;12.00;99.90;;;;;;5038291;28;20034;-70
2021/01/31 15:13:37;;;;;;;2.50;1.70;;;11.80;99.90;;;;;;5036951;28;20384;-69
2021/01/31 15:16:41;;;;;;;1.73;1.00;;;11.60;99.90;;;;;;5031202;28;20038;-70
2021/01/31 15:19:47;;;;;;;1.63;1.30;;;11.40;99.90;;;;;;5032912;28;20649;-69
2021/01/31 15:22:50;;;;;;;1.65;0.90;;;11.20;99.90;;;;;;5046449;28;20048;-70
2021/01/31 15:25:54;;;;;;;2.22;1.20;;;11.00;99.90;;;;;;5049288;28;20048;-69
2021/01/31 15:28:59;;;;;;;2.60;1.90;;;10.90;99.90;;;;;;5045496;28;20032;-69
2021/01/31 15:32:03;;;;;;;2.65;1.70;;;10.70;99.90;;;;;;5044036;28;20045;-70
2021/01/31 15:35:08;;;;;;;2.05;1.10;;;10.60;99.90;;;;;;5031391;28;20060;-69
2021/01/31 15:38:12;;;;;;;4.45;2.78;;;10.60;99.90;;;;;;5035941;28;20044;-69
2021/01/31 15:41:16;;;;;;;3.08;1.55;;;10.50;99.90;;;;;;5034732;28;20368;-69
2021/01/31 15:44:20;;;;;;;1.58;1.10;;;10.50;99.90;;;;;;5038176;28;20476;-69
2021/01/31 15:47:24;;;;;;;1.30;1.02;;;10.40;99.90;;;;;;5030508;28;20037;-70
2021/01/31 15:50:29;;;;;;;1.95;1.40;;;10.40;99.90;;;;;;5036808;28;20032;-69
2021/01/31 15:53:33;;;;;;;2.17;1.67;;;10.30;99.90;;;;;;5043443;28;20053;-69
2021/01/31 15:56:39;;;;;;;1.65;1.40;;;10.30;99.90;;;;;;5042238;28;20056;-69
2021/01/31 15:59:44;;;;;;;4.10;2.30;;;10.20;99.90;;;;;;5043208;28;20037;-69
2021/01/31 16:02:49;;;;;;;4.38;2.50;;;10.10;99.90;;;;;;5045942;28;20652;-69
2021/01/31 16:05:53;;;;;;;4.25;2.00;;;10.00;99.90;;;;;;5048207;28;20048;-69
2021/01/31 16:09:05;;;;;;;2.50;1.80;;;9.90;99.90;;;;;;5027593;28;20041;-70
2021/01/31 16:12:17;;;;;;;3.60;1.70;;;9.70;99.90;;;;;;5037883;28;20037;-69
2021/01/31 16:15:25;;;;;;;4.05;1.65;;;9.50;99.90;;;;;;5036535;28;20049;-70
2021/01/31 16:18:30;;;;;;;1.63;1.13;;;9.40;99.90;;;;;;5034812;28;20036;-69
2021/01/31 16:21:36;;;;;;;1.50;1.20;;;9.30;99.90;;;;;;5039255;28;20037;-69
2021/01/31 16:24:42;;;;;;;5.38;2.70;;;9.20;99.90;;;;;;5039692;28;20037;-69
2021/01/31 16:27:46;;;;;;;10.68;6.50;;;9.10;99.90;;;;;;5040449;28;20479;-69
2021/01/31 16:30:53;;;;;;;25.17;15.43;;;9.10;99.90;;;;;;5035862;28;20049;-69
2021/01/31 16:34:06;;;;;;;44.17;25.90;;;9.00;99.90;;;;;;5040361;28;20047;-69
2021/01/31 16:37:13;;;;;;;5.68;2.97;;;9.00;99.90;;;;;;5038903;28;20392;-69
2021/01/31 16:40:21;;;;;;;2.50;1.65;;;9.00;99.90;;;;;;5030797;28;20048;-70
2021/01/31 16:43:26;;;;;;;3.65;1.95;;;9.00;99.90;;;;;;5038543;28;20036;-69
2021/01/31 16:46:32;;;;;;;4.60;2.33;;;8.90;99.90;;;;;;5038839;28;20045;-69
2021/01/31 16:49:36;;;;;;;4.72;3.20;;;8.80;99.90;;;;;;5037108;28;20040;-69
2021/01/31 16:52:41;;;;;;;1.65;1.40;;;8.90;99.90;;;;;;5044234;28;20494;-69
2021/01/31 16:55:45;;;;;;;5.47;3.50;;;8.80;99.90;;;;;;5042155;28;20041;-69
2021/01/31 16:58:50;;;;;;;2.60;1.70;;;8.80;99.90;;;;;;5041004;28;20037;-69
2021/01/31 17:01:54;;;;;;;4.15;1.65;;;8.90;99.90;;;;;;5039998;28;20045;-69
2021/01/31 17:04:59;;;;;;;5.15;2.63;;;8.80;99.90;;;;;;5039797;28;20804;-69
2021/01/31 17:08:03;;;;;;;2.55;1.83;;;8.80;99.90;;;;;;5039657;28;20045;-69
2021/01/31 17:11:07;;;;;;;11.60;5.95;;;8.80;99.90;;;;;;5040586;28;20033;-70
2021/01/31 17:14:12;;;;;;;75.68;45.85;;;8.80;99.90;;;;;;5039181;28;20681;-69
2021/01/31 17:17:16;;;;;;;22.75;13.90;;;8.80;99.90;;;;;;5039050;28;20542;-69
2021/01/31 17:20:22;;;;;;;28.45;17.65;;;8.80;99.90;;;;;;5036212;28;20661;-69
2021/01/31 17:23:27;;;;;;;17.40;12.95;;;8.80;99.90;;;;;;5043034;28;20052;-69
2021/01/31 17:26:34;;;;;;;18.13;11.20;;;8.80;99.90;;;;;;5043778;28;20372;-69
2021/01/31 17:29:38;;;;;;;8.50;4.30;;;8.70;99.90;;;;;;5039231;28;20050;-69
2021/01/31 17:32:42;;;;;;;6.57;2.75;;;8.60;99.90;;;;;;5043245;28;20480;-69
2021/01/31 17:35:48;;;;;;;4.85;2.72;;;8.50;99.90;;;;;;5043006;28;20041;-68
2021/01/31 17:38:52;;;;;;;5.38;2.70;;;8.40;99.90;;;;;;5038465;28;20044;-69
2021/01/31 17:41:57;;;;;;;6.22;2.72;;;8.20;99.90;;;;;;5040182;28;20041;-69
2021/01/31 17:45:08;;;;;;;5.60;3.38;;;8.20;99.90;;;;;;5041263;28;20397;-69
2021/01/31 17:48:15;;;;;;;21.13;12.77;;;8.00;99.90;;;;;;5034354;28;20033;-69
2021/01/31 17:51:19;;;;;;;35.58;21.88;;;8.00;99.90;;;;;;5037076;28;20048;-69
2021/01/31 17:54:23;;;;;;;36.83;22.80;;;7.90;99.90;;;;;;5036964;28;20048;-69
2021/01/31 17:57:28;;;;;;;34.10;21.58;;;7.90;99.90;;;;;;5039371;28;20044;-69